sensor_id;sensor_type;location;lat;lon;timestamp;temperature;humidity
30186;DHT22;31152;49.190;8.122;2023-08-06T00:02:13;15.00;99.90
30186;DHT22;31152;49.190;8.122;2023-08-06T00:04:40;15.10;99.90
30186;DHT22;31152;49.190;8.122;2023-08-06T00:07:09;15.00;99.90
30186;DHT22;31152;49.190;8.122;2023-08-06T00:09:36;15.10;99.90
30186;DHT22;31152;49.190;8.122;2023-08-06T00:12:03;15.10;99.90
30186;DHT22;31152;49.190;8.122;2023-08-06T00:14:30;15.10;99.90
30186;DHT22;31152;49.190;8.122;2023-08-06T00:16:59;15.00;99.90
30186;DHT22;31152;49.190;8.122;2023-08-06T00:19:26;15.10;99.90
30186;DHT22;31152;49.190;8.122;2023-08-06T00:21:55;15.00;99.90
30186;DHT22;31152;49.190;8.122;2023-08-06T00:24:22;15.00;99.90
30186;DHT22;31152;49.190;8.122;2023-08-06T00:26:48;15.00;99.90
30186;DHT22;31152;49.190;8.122;2023-08-06T00:29:15;15.00;99.90
30186;DHT22;31152;49.190;8.122;2023-08-06T00:31:42;15.00;99.90
30186;DHT22;31152;49.190;8.122;2023-08-06T00:34:09;14.90;99.90
30186;DHT22;31152;49.190;8.122;2023-08-06T00:36:35;14.90;99.90
30186;DHT22;31152;49.190;8.122;2023-08-06T00:39:02;14.90;99.90
30186;DHT22;31152;49.190;8.122;2023-08-06T00:41:31;15.00;99.90
30186;DHT22;31152;49.190;8.122;2023-08-06T00:43:58;14.90;99.90
30186;DHT22;31152;49.190;8.122;2023-08-06T00:46:25;15.00;99.90
30186;DHT22;31152;49.190;8.122;2023-08-06T00:48:51;15.00;99.90
30186;DHT22;31152;49.190;8.122;2023-08-06T00:51:19;15.00;99.90
30186;DHT22;31152;49.190;8.122;2023-08-06T00:53:47;15.00;99.90
30186;DHT22;31152;49.190;8.122;2023-08-06T00:56:14;15.00;99.90
30186;DHT22;31152;49.190;8.122;2023-08-06T00:58:41;15.00;99.90
30186;DHT22;31152;49.190;8.122;2023-08-06T01:01:08;15.00;99.90
30186;DHT22;31152;49.190;8.122;2023-08-06T01:03:35;15.00;99.90
30186;DHT22;31152;49.190;8.122;2023-08-06T01:06:04;15.00;99.90
30186;DHT22;31152;49.190;8.122;2023-08-06T01:08:44;15.10;99.90
30186;DHT22;31152;49.190;8.122;2023-08-06T01:11:26;15.00;99.90
30186;DHT22;31152;49.190;8.122;2023-08-06T01:13:59;15.00;99.90
30186;DHT22;31152;49.190;8.122;2023-08-06T01:16:34;15.00;99.90
30186;DHT22;31152;49.190;8.122;2023-08-06T01:19:18;15.10;99.90
30186;DHT22;31152;49.190;8.122;2023-08-06T01:21:45;15.00;99.90
30186;DHT22;31152;49.190;8.122;2023-08-06T01:24:15;15.00;99.90
30186;DHT22;31152;49.190;8.122;2023-08-06T01:26:45;15.00;99.90
30186;DHT22;31152;49.190;8.122;2023-08-06T01:29:35;15.00;99.90
30186;DHT22;31152;49.190;8.122;2023-08-06T01:32:08;14.90;99.90
30186;DHT22;31152;49.190;8.122;2023-08-06T01:34:39;14.90;99.90
30186;DHT22;31152;49.190;8.122;2023-08-06T01:37:07;14.90;99.90
30186;DHT22;31152;49.190;8.122;2023-08-06T01:39:34;14.80;99.90
30186;DHT22;31152;49.190;8.122;2023-08-06T01:42:01;14.80;99.90
30186;DHT22;31152;49.190;8.122;2023-08-06T01:44:28;14.80;99.90
30186;DHT22;31152;49.190;8.122;2023-08-06T01:46:55;14.80;99.90
30186;DHT22;31152;49.190;8.122;2023-08-06T01:49:21;14.90;99.90
30186;DHT22;31152;49.190;8.122;2023-08-06T01:51:48;14.90;99.90
30186;DHT22;31152;49.190;8.122;2023-08-06T01:54:15;14.90;99.90
30186;DHT22;31152;49.190;8.122;2023-08-06T01:56:42;14.90;99.90
30186;DHT22;31152;49.190;8.122;2023-08-06T01:59:11;14.80;99.90
30186;DHT22;31152;49.190;8.122;2023-08-06T02:01:40;14.80;99.90
30186;DHT22;31152;49.190;8.122;2023-08-06T02:04:07;14.80;99.90
30186;DHT22;31152;49.190;8.122;2023-08-06T02:06:34;14.80;99.90
30186;DHT22;31152;49.190;8.122;2023-08-06T02:09:03;14.80;99.90
30186;DHT22;31152;49.190;8.122;2023-08-06T02:11:30;14.80;99.90
30186;DHT22;31152;49.190;8.122;2023-08-06T02:13:57;14.70;99.90
30186;DHT22;31152;49.190;8.122;2023-08-06T02:16:23;14.60;99.90
30186;DHT22;31152;49.190;8.122;2023-08-06T02:18:50;14.60;99.90
30186;DHT22;31152;49.190;8.122;2023-08-06T02:21:17;14.60;99.90
30186;DHT22;31152;49.190;8.122;2023-08-06T02:23:43;14.60;99.90
30186;DHT22;31152;49.190;8.122;2023-08-06T02:26:10;14.60;99.90
30186;DHT22;31152;49.190;8.122;2023-08-06T02:28:37;14.60;99.90
30186;DHT22;31152;49.190;8.122;2023-08-06T02:31:06;14.60;99.90
30186;DHT22;31152;49.190;8.122;2023-08-06T02:33:38;14.50;99.90
30186;DHT22;31152;49.190;8.122;2023-08-06T02:36:05;14.60;99.90
30186;DHT22;31152;49.190;8.122;2023-08-06T02:38:32;14.50;99.90
30186;DHT22;31152;49.190;8.122;2023-08-06T02:40:59;14.60;99.90
30186;DHT22;31152;49.190;8.122;2023-08-06T02:43:28;14.60;99.90
30186;DHT22;31152;49.190;8.122;2023-08-06T02:46:03;14.60;99.90
30186;DHT22;31152;49.190;8.122;2023-08-06T02:48:30;14.70;99.90
30186;DHT22;31152;49.190;8.122;2023-08-06T02:51:00;14.70;99.90
30186;DHT22;31152;49.190;8.122;2023-08-06T02:53:29;14.70;99.90
30186;DHT22;31152;49.190;8.122;2023-08-06T02:55:56;14.80;99.90
30186;DHT22;31152;49.190;8.122;2023-08-06T02:58:22;14.80;99.90
30186;DHT22;31152;49.190;8.122;2023-08-06T03:01:03;14.80;99.90
30186;DHT22;31152;49.190;8.122;2023-08-06T03:03:32;14.80;99.90
30186;DHT22;31152;49.190;8.122;2023-08-06T03:06:01;14.80;99.90
30186;DHT22;31152;49.190;8.122;2023-08-06T03:08:28;14.80;99.90
30186;DHT22;31152;49.190;8.122;2023-08-06T03:10:55;14.90;99.90
30186;DHT22;31152;49.190;8.122;2023-08-06T03:13:22;14.80;99.90
30186;DHT22;31152;49.190;8.122;2023-08-06T03:15:56;14.80;99.90
30186;DHT22;31152;49.190;8.122;2023-08-06T03:18:23;14.80;99.90
30186;DHT22;31152;49.190;8.122;2023-08-06T03:20:54;14.80;99.90
30186;DHT22;31152;49.190;8.122;2023-08-06T03:23:23;14.80;99.90
30186;DHT22;31152;49.190;8.122;2023-08-06T03:25:53;14.80;99.90
30186;DHT22;31152;49.190;8.122;2023-08-06T03:28:19;14.80;99.90
30186;DHT22;31152;49.190;8.122;2023-08-06T03:30:46;14.80;99.90
30186;DHT22;31152;49.190;8.122;2023-08-06T03:33:16;14.80;99.90
30186;DHT22;31152;49.190;8.122;2023-08-06T03:35:45;14.80;99.90
30186;DHT22;31152;49.190;8.122;2023-08-06T03:38:11;14.80;99.90
30186;DHT22;31152;49.190;8.122;2023-08-06T03:40:40;14.90;99.90
30186;DHT22;31152;49.190;8.122;2023-08-06T03:43:07;14.90;99.90
30186;DHT22;31152;49.190;8.122;2023-08-06T03:45:34;14.90;99.90
30186;DHT22;31152;49.190;8.122;2023-08-06T03:48:01;14.90;99.90
30186;DHT22;31152;49.190;8.122;2023-08-06T03:50:27;14.90;99.90
30186;DHT22;31152;49.190;8.122;2023-08-06T03:52:54;14.90;99.90
30186;DHT22;31152;49.190;8.122;2023-08-06T03:55:24;14.80;99.90
30186;DHT22;31152;49.190;8.122;2023-08-06T03:57:53;14.80;99.90
30186;DHT22;31152;49.190;8.122;2023-08-06T04:00:22;14.80;99.90
30186;DHT22;31152;49.190;8.122;2023-08-06T04:02:49;14.70;99.90
30186;DHT22;31152;49.190;8.122;2023-08-06T04:05:18;14.70;99.90
30186;DHT22;31152;49.190;8.122;2023-08-06T04:07:44;14.70;99.90
30186;DHT22;31152;49.190;8.122;2023-08-06T04:10:13;14.60;99.90
30186;DHT22;31152;49.190;8.122;2023-08-06T04:12:40;14.60;99.90
30186;DHT22;31152;49.190;8.122;2023-08-06T04:15:07;14.60;99.90
30186;DHT22;31152;49.190;8.122;2023-08-06T04:17:36;14.60;99.90
30186;DHT22;31152;49.190;8.122;2023-08-06T04:20:04;14.60;99.90
30186;DHT22;31152;49.190;8.122;2023-08-06T04:22:31;14.60;99.90
30186;DHT22;31152;49.190;8.122;2023-08-06T04:24:57;14.60;99.90
30186;DHT22;31152;49.190;8.122;2023-08-06T04:27:24;14.50;99.90
30186;DHT22;31152;49.190;8.122;2023-08-06T04:29:51;14.50;99.90
30186;DHT22;31152;49.190;8.122;2023-08-06T04:32:17;14.50;99.90
30186;DHT22;31152;49.190;8.122;2023-08-06T04:34:46;14.40;99.90
30186;DHT22;31152;49.190;8.122;2023-08-06T04:37:14;14.30;99.90
30186;DHT22;31152;49.190;8.122;2023-08-06T04:39:43;14.30;99.90
30186;DHT22;31152;49.190;8.122;2023-08-06T04:42:12;14.30;99.90
30186;DHT22;31152;49.190;8.122;2023-08-06T04:44:39;14.30;99.90
30186;DHT22;31152;49.190;8.122;2023-08-06T04:47:06;14.30;99.90
30186;DHT22;31152;49.190;8.122;2023-08-06T04:49:35;14.30;99.90
30186;DHT22;31152;49.190;8.122;2023-08-06T04:52:01;14.30;99.90
30186;DHT22;31152;49.190;8.122;2023-08-06T04:54:28;14.30;99.90
30186;DHT22;31152;49.190;8.122;2023-08-06T04:56:58;14.30;99.90
30186;DHT22;31152;49.190;8.122;2023-08-06T04:59:24;14.30;99.90
30186;DHT22;31152;49.190;8.122;2023-08-06T05:01:51;14.30;99.90
30186;DHT22;31152;49.190;8.122;2023-08-06T05:04:18;14.30;99.90
30186;DHT22;31152;49.190;8.122;2023-08-06T05:06:45;14.30;99.90
30186;DHT22;31152;49.190;8.122;2023-08-06T05:09:12;14.30;99.90
30186;DHT22;31152;49.190;8.122;2023-08-06T05:11:38;14.20;99.90
30186;DHT22;31152;49.190;8.122;2023-08-06T05:14:05;14.30;99.90
30186;DHT22;31152;49.190;8.122;2023-08-06T05:16:32;14.20;99.90
30186;DHT22;31152;49.190;8.122;2023-08-06T05:18:59;14.20;99.90
30186;DHT22;31152;49.190;8.122;2023-08-06T05:21:25;14.20;99.90
30186;DHT22;31152;49.190;8.122;2023-08-06T05:23:54;14.10;99.90
30186;DHT22;31152;49.190;8.122;2023-08-06T05:26:23;14.10;99.90
30186;DHT22;31152;49.190;8.122;2023-08-06T05:28:55;14.20;99.90
30186;DHT22;31152;49.190;8.122;2023-08-06T05:31:22;14.20;99.90
30186;DHT22;31152;49.190;8.122;2023-08-06T05:33:48;14.20;99.90
30186;DHT22;31152;49.190;8.122;2023-08-06T05:36:15;14.20;99.90
30186;DHT22;31152;49.190;8.122;2023-08-06T05:38:44;14.20;99.90
30186;DHT22;31152;49.190;8.122;2023-08-06T05:41:11;14.20;99.90
30186;DHT22;31152;49.190;8.122;2023-08-06T05:43:37;14.20;99.90
30186;DHT22;31152;49.190;8.122;2023-08-06T05:46:04;14.30;99.90
30186;DHT22;31152;49.190;8.122;2023-08-06T05:48:31;14.30;99.90
30186;DHT22;31152;49.190;8.122;2023-08-06T05:50:58;14.30;99.90
30186;DHT22;31152;49.190;8.122;2023-08-06T05:53:25;14.30;99.90
30186;DHT22;31152;49.190;8.122;2023-08-06T05:55:52;14.30;99.90
30186;DHT22;31152;49.190;8.122;2023-08-06T05:58:21;14.30;99.90
30186;DHT22;31152;49.190;8.122;2023-08-06T06:00:48;14.20;99.90
30186;DHT22;31152;49.190;8.122;2023-08-06T06:03:14;14.20;99.90
30186;DHT22;31152;49.190;8.122;2023-08-06T06:05:47;14.20;99.90
30186;DHT22;31152;49.190;8.122;2023-08-06T06:08:14;14.30;99.90
30186;DHT22;31152;49.190;8.122;2023-08-06T06:10:41;14.30;99.90
30186;DHT22;31152;49.190;8.122;2023-08-06T06:13:07;14.20;99.90
30186;DHT22;31152;49.190;8.122;2023-08-06T06:15:36;14.20;99.90
30186;DHT22;31152;49.190;8.122;2023-08-06T06:18:03;14.30;99.90
30186;DHT22;31152;49.190;8.122;2023-08-06T06:20:32;14.30;99.90
30186;DHT22;31152;49.190;8.122;2023-08-06T06:22:59;14.30;99.90
30186;DHT22;31152;49.190;8.122;2023-08-06T06:25:26;14.30;99.90
30186;DHT22;31152;49.190;8.122;2023-08-06T06:27:53;14.30;99.90
30186;DHT22;31152;49.190;8.122;2023-08-06T06:30:20;14.30;99.90
30186;DHT22;31152;49.190;8.122;2023-08-06T06:32:46;14.30;99.90
30186;DHT22;31152;49.190;8.122;2023-08-06T06:35:16;14.40;99.90
30186;DHT22;31152;49.190;8.122;2023-08-06T06:37:43;14.40;99.90
30186;DHT22;31152;49.190;8.122;2023-08-06T06:40:12;14.30;99.90
30186;DHT22;31152;49.190;8.122;2023-08-06T06:42:39;14.30;99.90
30186;DHT22;31152;49.190;8.122;2023-08-06T06:45:10;14.40;99.90
30186;DHT22;31152;49.190;8.122;2023-08-06T06:47:37;14.40;99.90
30186;DHT22;31152;49.190;8.122;2023-08-06T06:50:04;14.50;99.90
30186;DHT22;31152;49.190;8.122;2023-08-06T06:52:34;14.60;99.90
30186;DHT22;31152;49.190;8.122;2023-08-06T06:55:03;14.70;99.90
30186;DHT22;31152;49.190;8.122;2023-08-06T06:57:30;14.70;99.90
30186;DHT22;31152;49.190;8.122;2023-08-06T06:59:59;14.80;99.90
30186;DHT22;31152;49.190;8.122;2023-08-06T07:02:26;14.90;99.90
30186;DHT22;31152;49.190;8.122;2023-08-06T07:04:52;15.00;99.90
30186;DHT22;31152;49.190;8.122;2023-08-06T07:07:21;15.00;99.90
30186;DHT22;31152;49.190;8.122;2023-08-06T07:09:48;15.10;99.90
30186;DHT22;31152;49.190;8.122;2023-08-06T07:12:15;15.10;99.90
30186;DHT22;31152;49.190;8.122;2023-08-06T07:14:42;15.10;99.90
30186;DHT22;31152;49.190;8.122;2023-08-06T07:17:11;15.20;99.90
30186;DHT22;31152;49.190;8.122;2023-08-06T07:19:38;15.20;99.90
30186;DHT22;31152;49.190;8.122;2023-08-06T07:22:07;15.20;99.90
30186;DHT22;31152;49.190;8.122;2023-08-06T07:24:34;15.20;99.90
30186;DHT22;31152;49.190;8.122;2023-08-06T07:27:03;15.20;99.90
30186;DHT22;31152;49.190;8.122;2023-08-06T07:29:29;15.20;99.90
30186;DHT22;31152;49.190;8.122;2023-08-06T07:31:56;15.30;99.90
30186;DHT22;31152;49.190;8.122;2023-08-06T07:34:23;15.20;99.90
30186;DHT22;31152;49.190;8.122;2023-08-06T07:36:49;15.20;99.90
30186;DHT22;31152;49.190;8.122;2023-08-06T07:39:16;15.20;99.90
30186;DHT22;31152;49.190;8.122;2023-08-06T07:41:43;15.20;99.90
30186;DHT22;31152;49.190;8.122;2023-08-06T07:44:12;15.20;99.90
30186;DHT22;31152;49.190;8.122;2023-08-06T07:46:41;15.20;99.90
30186;DHT22;31152;49.190;8.122;2023-08-06T07:49:09;15.20;99.90
30186;DHT22;31152;49.190;8.122;2023-08-06T07:51:37;15.20;99.90
30186;DHT22;31152;49.190;8.122;2023-08-06T07:54:06;15.30;99.90
30186;DHT22;31152;49.190;8.122;2023-08-06T07:56:35;15.30;99.90
30186;DHT22;31152;49.190;8.122;2023-08-06T07:59:03;15.40;99.90
30186;DHT22;31152;49.190;8.122;2023-08-06T08:01:30;15.50;99.90
30186;DHT22;31152;49.190;8.122;2023-08-06T08:03:56;15.50;99.90
30186;DHT22;31152;49.190;8.122;2023-08-06T08:06:23;15.50;99.90
30186;DHT22;31152;49.190;8.122;2023-08-06T08:08:50;15.50;99.90
30186;DHT22;31152;49.190;8.122;2023-08-06T08:11:18;15.60;99.90
30186;DHT22;31152;49.190;8.122;2023-08-06T08:13:45;15.50;99.90
30186;DHT22;31152;49.190;8.122;2023-08-06T08:16:11;15.60;99.90
30186;DHT22;31152;49.190;8.122;2023-08-06T08:18:38;15.50;99.90
30186;DHT22;31152;49.190;8.122;2023-08-06T08:21:05;15.50;99.90
30186;DHT22;31152;49.190;8.122;2023-08-06T08:23:34;15.40;99.90
30186;DHT22;31152;49.190;8.122;2023-08-06T08:26:01;15.40;99.90
30186;DHT22;31152;49.190;8.122;2023-08-06T08:28:28;15.30;99.90
30186;DHT22;31152;49.190;8.122;2023-08-06T08:30:55;15.40;99.90
30186;DHT22;31152;49.190;8.122;2023-08-06T08:33:22;15.40;99.90
30186;DHT22;31152;49.190;8.122;2023-08-06T08:35:49;15.50;99.90
30186;DHT22;31152;49.190;8.122;2023-08-06T08:38:15;15.60;99.90
30186;DHT22;31152;49.190;8.122;2023-08-06T08:40:46;15.80;99.90
30186;DHT22;31152;49.190;8.122;2023-08-06T08:43:22;16.00;99.90
30186;DHT22;31152;49.190;8.122;2023-08-06T08:45:50;16.20;99.90
30186;DHT22;31152;49.190;8.122;2023-08-06T08:48:18;16.30;99.90
30186;DHT22;31152;49.190;8.122;2023-08-06T08:50:47;16.40;99.90
30186;DHT22;31152;49.190;8.122;2023-08-06T08:53:15;16.50;99.90
30186;DHT22;31152;49.190;8.122;2023-08-06T08:55:47;16.60;99.90
30186;DHT22;31152;49.190;8.122;2023-08-06T08:58:17;16.60;99.90
30186;DHT22;31152;49.190;8.122;2023-08-06T09:00:46;16.70;99.90
30186;DHT22;31152;49.190;8.122;2023-08-06T09:03:15;16.80;99.90
30186;DHT22;31152;49.190;8.122;2023-08-06T09:05:44;16.80;99.90
30186;DHT22;31152;49.190;8.122;2023-08-06T09:08:17;16.70;99.90
30186;DHT22;31152;49.190;8.122;2023-08-06T09:10:44;16.60;99.90
30186;DHT22;31152;49.190;8.122;2023-08-06T09:13:14;16.40;99.90
30186;DHT22;31152;49.190;8.122;2023-08-06T09:15:41;16.30;99.90
30186;DHT22;31152;49.190;8.122;2023-08-06T09:18:11;16.20;99.90
30186;DHT22;31152;49.190;8.122;2023-08-06T09:20:39;16.10;99.90
30186;DHT22;31152;49.190;8.122;2023-08-06T09:23:09;16.00;99.90
30186;DHT22;31152;49.190;8.122;2023-08-06T09:25:42;16.00;99.90
30186;DHT22;31152;49.190;8.122;2023-08-06T09:28:09;16.00;99.90
30186;DHT22;31152;49.190;8.122;2023-08-06T09:30:37;15.90;99.90
30186;DHT22;31152;49.190;8.122;2023-08-06T09:33:08;15.90;99.90
30186;DHT22;31152;49.190;8.122;2023-08-06T09:35:37;16.00;99.90
30186;DHT22;31152;49.190;8.122;2023-08-06T09:38:10;15.90;99.90
30186;DHT22;31152;49.190;8.122;2023-08-06T09:40:38;16.00;99.90
30186;DHT22;31152;49.190;8.122;2023-08-06T09:43:08;16.00;99.90
30186;DHT22;31152;49.190;8.122;2023-08-06T09:45:37;16.10;99.90
30186;DHT22;31152;49.190;8.122;2023-08-06T09:48:08;16.10;99.90
30186;DHT22;31152;49.190;8.122;2023-08-06T09:50:37;16.20;99.90
30186;DHT22;31152;49.190;8.122;2023-08-06T09:53:06;16.20;99.90
30186;DHT22;31152;49.190;8.122;2023-08-06T09:55:34;16.30;99.90
30186;DHT22;31152;49.190;8.122;2023-08-06T09:58:04;16.20;99.90
30186;DHT22;31152;49.190;8.122;2023-08-06T10:00:34;16.40;99.90
30186;DHT22;31152;49.190;8.122;2023-08-06T10:03:06;16.70;99.90
30186;DHT22;31152;49.190;8.122;2023-08-06T10:05:34;16.80;99.90
30186;DHT22;31152;49.190;8.122;2023-08-06T10:08:03;16.80;99.90
30186;DHT22;31152;49.190;8.122;2023-08-06T10:10:32;16.70;99.90
30186;DHT22;31152;49.190;8.122;2023-08-06T10:12:59;16.70;99.90
30186;DHT22;31152;49.190;8.122;2023-08-06T10:15:31;16.40;99.90
30186;DHT22;31152;49.190;8.122;2023-08-06T10:17:59;16.40;99.90
30186;DHT22;31152;49.190;8.122;2023-08-06T10:20:34;16.40;99.90
30186;DHT22;31152;49.190;8.122;2023-08-06T10:23:06;16.50;99.90
30186;DHT22;31152;49.190;8.122;2023-08-06T10:25:40;16.50;99.90
30186;DHT22;31152;49.190;8.122;2023-08-06T10:28:11;16.50;99.90
30186;DHT22;31152;49.190;8.122;2023-08-06T10:30:45;16.40;99.90
30186;DHT22;31152;49.190;8.122;2023-08-06T10:33:12;16.30;99.90
30186;DHT22;31152;49.190;8.122;2023-08-06T10:35:49;16.30;99.90
30186;DHT22;31152;49.190;8.122;2023-08-06T10:38:22;16.20;99.90
30186;DHT22;31152;49.190;8.122;2023-08-06T10:43:33;16.20;99.90
30186;DHT22;31152;49.190;8.122;2023-08-06T10:46:09;16.10;99.90
30186;DHT22;31152;49.190;8.122;2023-08-06T10:48:43;16.00;99.90
30186;DHT22;31152;49.190;8.122;2023-08-06T10:51:13;15.90;99.90
30186;DHT22;31152;49.190;8.122;2023-08-06T10:53:50;15.70;99.90
30186;DHT22;31152;49.190;8.122;2023-08-06T10:56:21;15.70;99.90
30186;DHT22;31152;49.190;8.122;2023-08-06T10:58:55;15.70;99.90
30186;DHT22;31152;49.190;8.122;2023-08-06T11:01:28;15.60;99.90
30186;DHT22;31152;49.190;8.122;2023-08-06T11:04:00;15.70;99.90
30186;DHT22;31152;49.190;8.122;2023-08-06T11:06:30;15.70;99.90
30186;DHT22;31152;49.190;8.122;2023-08-06T11:08:59;15.70;99.90
30186;DHT22;31152;49.190;8.122;2023-08-06T11:11:27;15.70;99.90
30186;DHT22;31152;49.190;8.122;2023-08-06T11:13:56;15.60;99.90
30186;DHT22;31152;49.190;8.122;2023-08-06T11:16:24;15.60;99.90
30186;DHT22;31152;49.190;8.122;2023-08-06T11:18:54;15.60;99.90
30186;DHT22;31152;49.190;8.122;2023-08-06T11:21:22;15.60;99.90
30186;DHT22;31152;49.190;8.122;2023-08-06T11:23:53;15.60;99.90
30186;DHT22;31152;49.190;8.122;2023-08-06T11:26:21;15.70;99.90
30186;DHT22;31152;49.190;8.122;2023-08-06T11:28:50;15.70;99.90
30186;DHT22;31152;49.190;8.122;2023-08-06T11:31:21;15.80;99.90
30186;DHT22;31152;49.190;8.122;2023-08-06T11:33:55;15.80;99.90
30186;DHT22;31152;49.190;8.122;2023-08-06T11:36:32;15.90;99.90
30186;DHT22;31152;49.190;8.122;2023-08-06T11:39:02;16.00;99.90
30186;DHT22;31152;49.190;8.122;2023-08-06T11:41:29;16.10;99.90
30186;DHT22;31152;49.190;8.122;2023-08-06T11:43:57;16.20;99.90
30186;DHT22;31152;49.190;8.122;2023-08-06T11:46:24;16.20;99.90
30186;DHT22;31152;49.190;8.122;2023-08-06T11:48:56;16.20;99.90
30186;DHT22;31152;49.190;8.122;2023-08-06T11:51:26;16.20;99.90
30186;DHT22;31152;49.190;8.122;2023-08-06T11:53:57;16.10;99.90
30186;DHT22;31152;49.190;8.122;2023-08-06T11:56:25;16.10;99.90
30186;DHT22;31152;49.190;8.122;2023-08-06T11:58:53;16.10;99.90
30186;DHT22;31152;49.190;8.122;2023-08-06T12:01:23;16.00;99.90
30186;DHT22;31152;49.190;8.122;2023-08-06T12:03:52;15.90;99.90
30186;DHT22;31152;49.190;8.122;2023-08-06T12:06:19;15.80;99.90
30186;DHT22;31152;49.190;8.122;2023-08-06T12:08:46;15.70;99.90
30186;DHT22;31152;49.190;8.122;2023-08-06T12:11:12;15.70;99.90
30186;DHT22;31152;49.190;8.122;2023-08-06T12:13:39;15.80;99.90
30186;DHT22;31152;49.190;8.122;2023-08-06T12:16:06;15.90;99.90
30186;DHT22;31152;49.190;8.122;2023-08-06T12:18:33;15.90;99.90
30186;DHT22;31152;49.190;8.122;2023-08-06T12:21:02;16.00;99.90
30186;DHT22;31152;49.190;8.122;2023-08-06T12:23:31;16.00;99.90
30186;DHT22;31152;49.190;8.122;2023-08-06T12:25:59;16.10;99.90
30186;DHT22;31152;49.190;8.122;2023-08-06T12:28:26;16.10;99.90
30186;DHT22;31152;49.190;8.122;2023-08-06T12:30:53;16.20;99.90
30186;DHT22;31152;49.190;8.122;2023-08-06T12:33:21;16.30;99.90
30186;DHT22;31152;49.190;8.122;2023-08-06T12:35:48;16.30;99.90
30186;DHT22;31152;49.190;8.122;2023-08-06T12:38:17;16.30;99.90
30186;DHT22;31152;49.190;8.122;2023-08-06T12:40:47;16.30;99.90
30186;DHT22;31152;49.190;8.122;2023-08-06T12:43:13;16.20;99.90
30186;DHT22;31152;49.190;8.122;2023-08-06T12:45:41;16.20;99.90
30186;DHT22;31152;49.190;8.122;2023-08-06T12:48:10;16.20;99.90
30186;DHT22;31152;49.190;8.122;2023-08-06T12:50:36;16.10;99.90
30186;DHT22;31152;49.190;8.122;2023-08-06T12:53:03;16.00;99.90
30186;DHT22;31152;49.190;8.122;2023-08-06T12:55:32;16.00;99.90
30186;DHT22;31152;49.190;8.122;2023-08-06T12:57:59;16.10;99.90
30186;DHT22;31152;49.190;8.122;2023-08-06T13:00:26;16.10;99.90
30186;DHT22;31152;49.190;8.122;2023-08-06T13:02:53;16.10;99.90
30186;DHT22;31152;49.190;8.122;2023-08-06T13:05:20;16.10;99.90
30186;DHT22;31152;49.190;8.122;2023-08-06T13:07:47;16.10;99.90
30186;DHT22;31152;49.190;8.122;2023-08-06T13:10:17;16.00;99.90
30186;DHT22;31152;49.190;8.122;2023-08-06T13:12:44;15.90;99.90
30186;DHT22;31152;49.190;8.122;2023-08-06T13:15:11;15.90;99.90
30186;DHT22;31152;49.190;8.122;2023-08-06T13:17:38;15.80;99.90
30186;DHT22;31152;49.190;8.122;2023-08-06T13:20:05;15.80;99.90
30186;DHT22;31152;49.190;8.122;2023-08-06T13:22:35;15.90;99.90
30186;DHT22;31152;49.190;8.122;2023-08-06T13:25:02;16.00;99.90
30186;DHT22;31152;49.190;8.122;2023-08-06T13:27:29;16.10;99.90
30186;DHT22;31152;49.190;8.122;2023-08-06T13:29:58;16.20;99.90
30186;DHT22;31152;49.190;8.122;2023-08-06T13:32:24;16.30;99.90
30186;DHT22;31152;49.190;8.122;2023-08-06T13:34:56;16.40;99.90
30186;DHT22;31152;49.190;8.122;2023-08-06T13:37:23;16.50;99.90
30186;DHT22;31152;49.190;8.122;2023-08-06T13:39:49;16.50;99.90
30186;DHT22;31152;49.190;8.122;2023-08-06T13:42:16;16.70;99.90
30186;DHT22;31152;49.190;8.122;2023-08-06T13:44:43;16.70;99.90
30186;DHT22;31152;49.190;8.122;2023-08-06T13:47:10;16.70;99.90
30186;DHT22;31152;49.190;8.122;2023-08-06T13:49:36;16.70;99.90
30186;DHT22;31152;49.190;8.122;2023-08-06T13:52:04;16.70;99.90
30186;DHT22;31152;49.190;8.122;2023-08-06T13:54:49;16.60;99.90
30186;DHT22;31152;49.190;8.122;2023-08-06T13:57:15;16.70;99.90
30186;DHT22;31152;49.190;8.122;2023-08-06T13:59:44;16.80;99.90
30186;DHT22;31152;49.190;8.122;2023-08-06T14:02:11;16.90;99.90
30186;DHT22;31152;49.190;8.122;2023-08-06T14:04:40;16.90;99.90
30186;DHT22;31152;49.190;8.122;2023-08-06T14:07:07;16.90;99.90
30186;DHT22;31152;49.190;8.122;2023-08-06T14:09:34;16.90;99.90
30186;DHT22;31152;49.190;8.122;2023-08-06T14:12:04;16.90;99.90
30186;DHT22;31152;49.190;8.122;2023-08-06T14:14:31;16.90;99.90
30186;DHT22;31152;49.190;8.122;2023-08-06T14:16:58;16.80;99.90
30186;DHT22;31152;49.190;8.122;2023-08-06T14:19:26;16.60;99.90
30186;DHT22;31152;49.190;8.122;2023-08-06T14:21:57;16.50;99.90
30186;DHT22;31152;49.190;8.122;2023-08-06T14:24:24;16.40;99.90
30186;DHT22;31152;49.190;8.122;2023-08-06T14:26:52;16.40;99.90
30186;DHT22;31152;49.190;8.122;2023-08-06T14:29:21;16.40;99.90
30186;DHT22;31152;49.190;8.122;2023-08-06T14:31:50;16.50;99.90
30186;DHT22;31152;49.190;8.122;2023-08-06T14:34:17;16.60;99.90
30186;DHT22;31152;49.190;8.122;2023-08-06T14:36:44;16.60;99.90
30186;DHT22;31152;49.190;8.122;2023-08-06T14:39:10;16.70;99.90
30186;DHT22;31152;49.190;8.122;2023-08-06T14:41:37;16.70;99.90
30186;DHT22;31152;49.190;8.122;2023-08-06T14:44:04;16.80;99.90
30186;DHT22;31152;49.190;8.122;2023-08-06T14:46:31;16.90;99.90
30186;DHT22;31152;49.190;8.122;2023-08-06T14:48:58;16.90;99.90
30186;DHT22;31152;49.190;8.122;2023-08-06T14:51:25;16.90;99.90
30186;DHT22;31152;49.190;8.122;2023-08-06T14:53:52;16.90;99.90
30186;DHT22;31152;49.190;8.122;2023-08-06T14:56:19;16.80;99.90
30186;DHT22;31152;49.190;8.122;2023-08-06T14:58:48;16.70;99.90
30186;DHT22;31152;49.190;8.122;2023-08-06T15:01:15;16.40;99.90
30186;DHT22;31152;49.190;8.122;2023-08-06T15:03:42;16.10;99.90
30186;DHT22;31152;49.190;8.122;2023-08-06T15:06:11;15.90;99.90
30186;DHT22;31152;49.190;8.122;2023-08-06T15:08:43;15.60;99.90
30186;DHT22;31152;49.190;8.122;2023-08-06T15:11:13;15.40;99.90
30186;DHT22;31152;49.190;8.122;2023-08-06T15:13:40;15.30;99.90
30186;DHT22;31152;49.190;8.122;2023-08-06T15:16:07;15.30;99.90
30186;DHT22;31152;49.190;8.122;2023-08-06T15:18:34;15.30;99.90
30186;DHT22;31152;49.190;8.122;2023-08-06T15:21:02;15.40;99.90
30186;DHT22;31152;49.190;8.122;2023-08-06T15:23:28;15.40;99.90
30186;DHT22;31152;49.190;8.122;2023-08-06T15:25:55;15.50;99.90
30186;DHT22;31152;49.190;8.122;2023-08-06T15:28:22;15.60;99.90
30186;DHT22;31152;49.190;8.122;2023-08-06T15:30:52;15.60;99.90
30186;DHT22;31152;49.190;8.122;2023-08-06T15:33:23;15.60;99.90
30186;DHT22;31152;49.190;8.122;2023-08-06T15:35:50;15.70;99.90
30186;DHT22;31152;49.190;8.122;2023-08-06T15:38:17;15.80;99.90
30186;DHT22;31152;49.190;8.122;2023-08-06T15:40:43;15.80;99.90